sensor_id;sensor_type;location;lat;lon;timestamp;pressure;altitude;pressure_sealevel;temperature;humidity
84653;BME280;74883;48.882;2.092;2024-01-06T00:01:17;100451.97;;;2.83;95.08
84653;BME280;74883;48.882;2.092;2024-01-06T00:03:42;100452.00;;;2.82;94.87
84653;BME280;74883;48.882;2.092;2024-01-06T00:06:11;100461.75;;;2.71;95.08
84653;BME280;74883;48.882;2.092;2024-01-06T00:08:37;100458.25;;;2.73;95.42
84653;BME280;74883;48.882;2.092;2024-01-06T00:11:03;100463.53;;;2.69;95.34
84653;BME280;74883;48.882;2.092;2024-01-06T00:13:28;100471.38;;;2.63;95.34
84653;BME280;74883;48.882;2.092;2024-01-06T00:15:54;100471.56;;;2.57;94.71
84653;BME280;74883;48.882;2.092;2024-01-06T00:18:20;100472.41;;;2.57;95.24
84653;BME280;74883;48.882;2.092;2024-01-06T00:20:45;100469.88;;;2.56;95.35
84653;BME280;74883;48.882;2.092;2024-01-06T00:23:10;100468.22;;;2.55;95.00
84653;BME280;74883;48.882;2.092;2024-01-06T00:25:36;100470.78;;;2.53;95.25
84653;BME280;74883;48.882;2.092;2024-01-06T00:28:01;100478.63;;;2.49;95.51
84653;BME280;74883;48.882;2.092;2024-01-06T00:30:26;100484.66;;;2.46;94.76
84653;BME280;74883;48.882;2.092;2024-01-06T00:32:52;100488.09;;;2.47;95.34
84653;BME280;74883;48.882;2.092;2024-01-06T00:35:17;100489.84;;;2.45;94.92
84653;BME280;74883;48.882;2.092;2024-01-06T00:37:42;100489.09;;;2.41;95.05
84653;BME280;74883;48.882;2.092;2024-01-06T00:40:08;100491.75;;;2.38;94.71
84653;BME280;74883;48.882;2.092;2024-01-06T00:42:33;100486.66;;;2.37;95.28
84653;BME280;74883;48.882;2.092;2024-01-06T00:44:59;100487.47;;;2.37;94.93
84653;BME280;74883;48.882;2.092;2024-01-06T00:47:24;100484.25;;;2.31;94.79
84653;BME280;74883;48.882;2.092;2024-01-06T00:49:50;100493.66;;;2.30;94.96
84653;BME280;74883;48.882;2.092;2024-01-06T00:52:15;100489.47;;;2.28;94.99
84653;BME280;74883;48.882;2.092;2024-01-06T00:54:41;100483.75;;;2.18;94.66
84653;BME280;74883;48.882;2.092;2024-01-06T00:57:06;100494.94;;;2.16;94.61
84653;BME280;74883;48.882;2.092;2024-01-06T00:59:32;100492.38;;;2.16;94.79
84653;BME280;74883;48.882;2.092;2024-01-06T01:01:57;100495.06;;;2.09;94.79
84653;BME280;74883;48.882;2.092;2024-01-06T01:04:23;100496.03;;;2.05;95.05
84653;BME280;74883;48.882;2.092;2024-01-06T01:06:48;100497.88;;;2.00;94.82
84653;BME280;74883;48.882;2.092;2024-01-06T01:09:13;100503.88;;;1.99;94.85
84653;BME280;74883;48.882;2.092;2024-01-06T01:11:39;100499.56;;;2.01;95.20
84653;BME280;74883;48.882;2.092;2024-01-06T01:14:05;100509.69;;;2.06;94.91
84653;BME280;74883;48.882;2.092;2024-01-06T01:16:30;100519.88;;;2.09;94.89
84653;BME280;74883;48.882;2.092;2024-01-06T01:18:57;100520.69;;;2.09;95.19
84653;BME280;74883;48.882;2.092;2024-01-06T01:21:23;100516.47;;;2.08;94.70
84653;BME280;74883;48.882;2.092;2024-01-06T01:23:48;100518.94;;;2.11;94.79
84653;BME280;74883;48.882;2.092;2024-01-06T01:26:13;100514.88;;;2.03;95.05
84653;BME280;74883;48.882;2.092;2024-01-06T01:28:39;100516.59;;;2.02;95.19
84653;BME280;74883;48.882;2.092;2024-01-06T01:31:04;100508.91;;;2.02;95.33
84653;BME280;74883;48.882;2.092;2024-01-06T01:33:29;100515.75;;;2.03;95.28
84653;BME280;74883;48.882;2.092;2024-01-06T01:35:55;100522.53;;;2.04;95.01
84653;BME280;74883;48.882;2.092;2024-01-06T01:38:20;100517.47;;;2.03;94.87
84653;BME280;74883;48.882;2.092;2024-01-06T01:40:45;100521.03;;;1.97;94.61
84653;BME280;74883;48.882;2.092;2024-01-06T01:43:20;100521.97;;;1.93;94.77
84653;BME280;74883;48.882;2.092;2024-01-06T01:45:56;100521.16;;;1.91;94.82
84653;BME280;74883;48.882;2.092;2024-01-06T01:48:22;100526.28;;;1.91;95.33
84653;BME280;74883;48.882;2.092;2024-01-06T01:50:49;100531.56;;;1.85;94.65
84653;BME280;74883;48.882;2.092;2024-01-06T01:53:15;100532.44;;;1.84;95.00
84653;BME280;74883;48.882;2.092;2024-01-06T01:55:41;100541.09;;;1.80;94.44
84653;BME280;74883;48.882;2.092;2024-01-06T01:58:07;100540.28;;;1.78;95.21
84653;BME280;74883;48.882;2.092;2024-01-06T02:00:33;100542.09;;;1.73;95.07
84653;BME280;74883;48.882;2.092;2024-01-06T02:03:03;100552.34;;;1.73;94.89
84653;BME280;74883;48.882;2.092;2024-01-06T02:05:29;100556.63;;;1.73;95.25
84653;BME280;74883;48.882;2.092;2024-01-06T02:07:58;100556.56;;;1.76;95.48
84653;BME280;74883;48.882;2.092;2024-01-06T02:10:23;100565.00;;;1.81;94.90
84653;BME280;74883;48.882;2.092;2024-01-06T02:12:49;100558.97;;;1.83;94.98
84653;BME280;74883;48.882;2.092;2024-01-06T02:15:14;100567.34;;;1.88;95.26
84653;BME280;74883;48.882;2.092;2024-01-06T02:17:40;100563.06;;;1.89;95.06
84653;BME280;74883;48.882;2.092;2024-01-06T02:20:06;100569.00;;;1.92;95.60
84653;BME280;74883;48.882;2.092;2024-01-06T02:22:34;100563.06;;;1.90;95.37
84653;BME280;74883;48.882;2.092;2024-01-06T02:25:00;100567.28;;;1.91;94.94
84653;BME280;74883;48.882;2.092;2024-01-06T02:27:26;100569.81;;;1.93;95.46
84653;BME280;74883;48.882;2.092;2024-01-06T02:29:51;100573.31;;;1.90;95.16
84653;BME280;74883;48.882;2.092;2024-01-06T02:32:17;100575.78;;;1.93;95.39
84653;BME280;74883;48.882;2.092;2024-01-06T02:34:42;100576.44;;;2.01;94.92
84653;BME280;74883;48.882;2.092;2024-01-06T02:37:07;100573.03;;;2.01;95.33
84653;BME280;74883;48.882;2.092;2024-01-06T02:39:33;100580.78;;;1.99;95.50
84653;BME280;74883;48.882;2.092;2024-01-06T02:41:58;100575.50;;;2.05;95.56
84653;BME280;74883;48.882;2.092;2024-01-06T02:44:23;100575.44;;;2.08;95.86
84653;BME280;74883;48.882;2.092;2024-01-06T02:46:49;100571.22;;;2.06;94.67
84653;BME280;74883;48.882;2.092;2024-01-06T02:49:14;100575.44;;;2.08;95.43
84653;BME280;74883;48.882;2.092;2024-01-06T02:51:39;100578.75;;;2.12;95.18
84653;BME280;74883;48.882;2.092;2024-01-06T02:54:05;100576.06;;;2.17;95.47
84653;BME280;74883;48.882;2.092;2024-01-06T02:56:30;100592.25;;;2.19;95.52
84653;BME280;74883;48.882;2.092;2024-01-06T02:58:55;100593.88;;;2.23;95.39
84653;BME280;74883;48.882;2.092;2024-01-06T03:01:20;100592.78;;;2.31;95.58
84653;BME280;74883;48.882;2.092;2024-01-06T03:03:46;100597.84;;;2.34;95.73
84653;BME280;74883;48.882;2.092;2024-01-06T03:06:12;100601.06;;;2.42;95.58
84653;BME280;74883;48.882;2.092;2024-01-06T03:08:37;100600.94;;;2.47;95.85
84653;BME280;74883;48.882;2.092;2024-01-06T03:11:02;100598.34;;;2.48;95.48
84653;BME280;74883;48.882;2.092;2024-01-06T03:13:29;100603.25;;;2.56;95.56
84653;BME280;74883;48.882;2.092;2024-01-06T03:16:02;100598.00;;;2.62;95.61
84653;BME280;74883;48.882;2.092;2024-01-06T03:18:28;100612.25;;;2.72;95.23
84653;BME280;74883;48.882;2.092;2024-01-06T03:20:53;100617.19;;;2.79;95.61
84653;BME280;74883;48.882;2.092;2024-01-06T03:23:19;100614.94;;;2.67;95.37
84653;BME280;74883;48.882;2.092;2024-01-06T03:25:44;100608.09;;;2.68;95.19
84653;BME280;74883;48.882;2.092;2024-01-06T03:28:09;100611.38;;;2.73;95.45
84653;BME280;74883;48.882;2.092;2024-01-06T03:30:35;100612.16;;;2.75;96.02
84653;BME280;74883;48.882;2.092;2024-01-06T03:33:01;100617.09;;;2.83;95.90
84653;BME280;74883;48.882;2.092;2024-01-06T03:35:26;100614.28;;;2.92;95.18
84653;BME280;74883;48.882;2.092;2024-01-06T03:37:51;100615.72;;;3.02;95.77
84653;BME280;74883;48.882;2.092;2024-01-06T03:40:17;100616.56;;;3.02;95.44
84653;BME280;74883;48.882;2.092;2024-01-06T03:42:42;100624.97;;;3.07;94.95
84653;BME280;74883;48.882;2.092;2024-01-06T03:45:08;100624.06;;;3.10;95.86
84653;BME280;74883;48.882;2.092;2024-01-06T03:47:33;100624.97;;;3.07;95.19
84653;BME280;74883;48.882;2.092;2024-01-06T03:49:58;100632.59;;;3.10;95.39
84653;BME280;74883;48.882;2.092;2024-01-06T03:52:24;100624.84;;;3.12;95.09
84653;BME280;74883;48.882;2.092;2024-01-06T03:54:49;100625.50;;;3.18;95.48
84653;BME280;74883;48.882;2.092;2024-01-06T03:57:14;100632.13;;;3.27;95.53
84653;BME280;74883;48.882;2.092;2024-01-06T03:59:39;100628.66;;;3.28;95.51
84653;BME280;74883;48.882;2.092;2024-01-06T04:02:05;100631.03;;;3.35;96.09
84653;BME280;74883;48.882;2.092;2024-01-06T04:04:30;100628.38;;;3.38;95.29
84653;BME280;74883;48.882;2.092;2024-01-06T04:06:55;100626.69;;;3.37;95.64
84653;BME280;74883;48.882;2.092;2024-01-06T04:09:21;100636.81;;;3.42;95.26
84653;BME280;74883;48.882;2.092;2024-01-06T04:11:46;100633.44;;;3.41;94.96
84653;BME280;74883;48.882;2.092;2024-01-06T04:14:11;100632.41;;;3.47;95.16
84653;BME280;74883;48.882;2.092;2024-01-06T04:16:37;100630.72;;;3.46;94.75
84653;BME280;74883;48.882;2.092;2024-01-06T04:19:02;100631.47;;;3.49;95.04
84653;BME280;74883;48.882;2.092;2024-01-06T04:21:28;100640.75;;;3.55;95.33
84653;BME280;74883;48.882;2.092;2024-01-06T04:23:53;100643.03;;;3.64;95.66
84653;BME280;74883;48.882;2.092;2024-01-06T04:26:19;100640.19;;;3.73;95.52
84653;BME280;74883;48.882;2.092;2024-01-06T04:28:44;100648.19;;;3.64;95.58
84653;BME280;74883;48.882;2.092;2024-01-06T04:31:10;100644.47;;;3.73;95.54
84653;BME280;74883;48.882;2.092;2024-01-06T04:33:35;100651.88;;;3.83;95.41
84653;BME280;74883;48.882;2.092;2024-01-06T04:36:02;100642.97;;;3.95;95.46
84653;BME280;74883;48.882;2.092;2024-01-06T04:38:27;100649.69;;;3.99;95.88
84653;BME280;74883;48.882;2.092;2024-01-06T04:40:53;100645.31;;;4.01;95.38
84653;BME280;74883;48.882;2.092;2024-01-06T04:43:18;100649.31;;;4.11;95.51
84653;BME280;74883;48.882;2.092;2024-01-06T04:45:43;100650.09;;;4.13;95.33
84653;BME280;74883;48.882;2.092;2024-01-06T04:48:09;100653.16;;;4.24;95.60
84653;BME280;74883;48.882;2.092;2024-01-06T04:50:34;100652.06;;;4.31;95.70
84653;BME280;74883;48.882;2.092;2024-01-06T04:52:59;100656.31;;;4.32;95.62
84653;BME280;74883;48.882;2.092;2024-01-06T04:55:25;100658.16;;;4.29;94.98
84653;BME280;74883;48.882;2.092;2024-01-06T04:57:50;100661.38;;;4.35;95.11
84653;BME280;74883;48.882;2.092;2024-01-06T05:00:16;100663.09;;;4.35;95.21
84653;BME280;74883;48.882;2.092;2024-01-06T05:02:41;100672.38;;;4.40;95.40
84653;BME280;74883;48.882;2.092;2024-01-06T05:05:07;100670.25;;;4.53;95.26
84653;BME280;74883;48.882;2.092;2024-01-06T05:07:32;100665.91;;;4.53;94.38
84653;BME280;74883;48.882;2.092;2024-01-06T05:09:57;100671.88;;;4.55;94.93
84653;BME280;74883;48.882;2.092;2024-01-06T05:12:22;100672.16;;;4.46;94.47
84653;BME280;74883;48.882;2.092;2024-01-06T05:14:48;100680.00;;;4.43;95.24
84653;BME280;74883;48.882;2.092;2024-01-06T05:17:13;100675.97;;;4.35;95.04
84653;BME280;74883;48.882;2.092;2024-01-06T05:19:38;100671.81;;;4.31;94.78
84653;BME280;74883;48.882;2.092;2024-01-06T05:22:04;100678.19;;;4.19;95.03
84653;BME280;74883;48.882;2.092;2024-01-06T05:24:29;100684.50;;;4.09;94.65
84653;BME280;74883;48.882;2.092;2024-01-06T05:26:54;100682.81;;;4.08;95.13
84653;BME280;74883;48.882;2.092;2024-01-06T05:29:20;100692.09;;;4.13;94.85
84653;BME280;74883;48.882;2.092;2024-01-06T05:31:45;100696.56;;;4.07;94.67
84653;BME280;74883;48.882;2.092;2024-01-06T05:34:12;100698.25;;;4.08;94.95
84653;BME280;74883;48.882;2.092;2024-01-06T05:36:38;100690.97;;;4.22;94.91
84653;BME280;74883;48.882;2.092;2024-01-06T05:39:03;100696.75;;;4.29;94.68
84653;BME280;74883;48.882;2.092;2024-01-06T05:41:29;100698.19;;;4.37;94.99
84653;BME280;74883;48.882;2.092;2024-01-06T05:43:54;100705.16;;;4.34;95.11
84653;BME280;74883;48.882;2.092;2024-01-06T05:46:24;100697.59;;;4.29;94.61
84653;BME280;74883;48.882;2.092;2024-01-06T05:48:49;100696.81;;;4.27;94.38
84653;BME280;74883;48.882;2.092;2024-01-06T05:51:15;100699.09;;;4.36;95.09
84653;BME280;74883;48.882;2.092;2024-01-06T05:53:40;100696.41;;;4.39;95.06
84653;BME280;74883;48.882;2.092;2024-01-06T05:56:07;100703.69;;;4.27;94.49
84653;BME280;74883;48.882;2.092;2024-01-06T05:58:34;100708.31;;;4.15;94.80
84653;BME280;74883;48.882;2.092;2024-01-06T06:00:59;100706.75;;;4.10;94.66
84653;BME280;74883;48.882;2.092;2024-01-06T06:03:25;100696.97;;;3.93;94.89
84653;BME280;74883;48.882;2.092;2024-01-06T06:05:50;100714.19;;;3.91;95.00
84653;BME280;74883;48.882;2.092;2024-01-06T06:08:15;100725.44;;;3.87;94.81
84653;BME280;74883;48.882;2.092;2024-01-06T06:10:41;100731.00;;;3.74;94.41
84653;BME280;74883;48.882;2.092;2024-01-06T06:13:09;100741.63;;;3.62;94.50
84653;BME280;74883;48.882;2.092;2024-01-06T06:15:36;100742.63;;;3.56;94.83
84653;BME280;74883;48.882;2.092;2024-01-06T06:18:01;100749.47;;;3.56;94.54
84653;BME280;74883;48.882;2.092;2024-01-06T06:20:26;100750.53;;;3.48;94.69
84653;BME280;74883;48.882;2.092;2024-01-06T06:22:52;100752.41;;;3.42;94.50
84653;BME280;74883;48.882;2.092;2024-01-06T06:25:17;100746.28;;;3.47;94.89
84653;BME280;74883;48.882;2.092;2024-01-06T06:27:42;100756.19;;;3.61;95.06
84653;BME280;74883;48.882;2.092;2024-01-06T06:30:08;100755.47;;;3.56;95.14
84653;BME280;74883;48.882;2.092;2024-01-06T06:32:33;100756.38;;;3.55;95.51
84653;BME280;74883;48.882;2.092;2024-01-06T06:35:01;100759.47;;;3.66;95.58
84653;BME280;74883;48.882;2.092;2024-01-06T06:37:26;100770.94;;;3.55;94.80
84653;BME280;74883;48.882;2.092;2024-01-06T06:39:52;100774.63;;;3.44;95.04
84653;BME280;74883;48.882;2.092;2024-01-06T06:42:17;100780.81;;;3.37;94.88
84653;BME280;74883;48.882;2.092;2024-01-06T06:44:42;100782.56;;;3.35;95.04
84653;BME280;74883;48.882;2.092;2024-01-06T06:47:07;100786.75;;;3.39;94.78
84653;BME280;74883;48.882;2.092;2024-01-06T06:49:33;100793.66;;;3.37;94.62
84653;BME280;74883;48.882;2.092;2024-01-06T06:51:58;100800.41;;;3.41;95.20
84653;BME280;74883;48.882;2.092;2024-01-06T06:54:24;100797.00;;;3.41;94.95
84653;BME280;74883;48.882;2.092;2024-01-06T06:56:49;100802.88;;;3.44;94.72
84653;BME280;74883;48.882;2.092;2024-01-06T06:59:14;100805.19;;;3.55;95.34
84653;BME280;74883;48.882;2.092;2024-01-06T07:01:40;100806.00;;;3.56;95.76
84653;BME280;74883;48.882;2.092;2024-01-06T07:04:05;100810.94;;;3.63;94.94
84653;BME280;74883;48.882;2.092;2024-01-06T07:06:31;100808.97;;;3.73;95.33
84653;BME280;74883;48.882;2.092;2024-01-06T07:08:56;100818.47;;;3.71;94.83
84653;BME280;74883;48.882;2.092;2024-01-06T07:11:22;100819.25;;;3.73;94.90
84653;BME280;74883;48.882;2.092;2024-01-06T07:13:47;100819.91;;;3.81;94.60
84653;BME280;74883;48.882;2.092;2024-01-06T07:16:13;100831.00;;;3.81;94.88
84653;BME280;74883;48.882;2.092;2024-01-06T07:18:38;100834.59;;;3.76;94.35
84653;BME280;74883;48.882;2.092;2024-01-06T07:21:07;100834.44;;;3.82;94.65
84653;BME280;74883;48.882;2.092;2024-01-06T07:23:32;100835.81;;;3.93;95.09
84653;BME280;74883;48.882;2.092;2024-01-06T07:25:58;100841.56;;;4.03;94.49
84653;BME280;74883;48.882;2.092;2024-01-06T07:28:23;100845.59;;;4.11;94.85
84653;BME280;74883;48.882;2.092;2024-01-06T07:30:49;100852.84;;;4.28;94.01
84653;BME280;74883;48.882;2.092;2024-01-06T07:33:14;100846.53;;;4.38;94.70
84653;BME280;74883;48.882;2.092;2024-01-06T07:35:39;100848.13;;;4.42;93.64
84653;BME280;74883;48.882;2.092;2024-01-06T07:38:09;100859.19;;;4.46;93.76
84653;BME280;74883;48.882;2.092;2024-01-06T07:40:35;100859.22;;;4.44;92.83
84653;BME280;74883;48.882;2.092;2024-01-06T07:43:01;100859.06;;;4.49;94.12
84653;BME280;74883;48.882;2.092;2024-01-06T07:45:27;100860.78;;;4.50;93.01
84653;BME280;74883;48.882;2.092;2024-01-06T07:47:52;100867.50;;;4.54;93.74
84653;BME280;74883;48.882;2.092;2024-01-06T07:50:18;100870.22;;;4.49;93.48
84653;BME280;74883;48.882;2.092;2024-01-06T07:52:43;100860.59;;;4.56;93.33
84653;BME280;74883;48.882;2.092;2024-01-06T07:55:08;100863.13;;;4.57;93.56
84653;BME280;74883;48.882;2.092;2024-01-06T07:57:34;100863.13;;;4.57;93.25
84653;BME280;74883;48.882;2.092;2024-01-06T07:59:59;100865.56;;;4.62;93.90
84653;BME280;74883;48.882;2.092;2024-01-06T08:02:25;100877.59;;;4.61;93.54
84653;BME280;74883;48.882;2.092;2024-01-06T08:04:51;100872.63;;;4.55;93.58
84653;BME280;74883;48.882;2.092;2024-01-06T08:07:16;100871.66;;;4.59;94.26
84653;BME280;74883;48.882;2.092;2024-01-06T08:09:41;100881.97;;;4.58;93.93
84653;BME280;74883;48.882;2.092;2024-01-06T08:12:07;100893.25;;;4.54;93.62
84653;BME280;74883;48.882;2.092;2024-01-06T08:14:33;100894.19;;;4.51;93.80
84653;BME280;74883;48.882;2.092;2024-01-06T08:16:58;100895.88;;;4.52;92.86
84653;BME280;74883;48.882;2.092;2024-01-06T08:19:24;100899.75;;;4.67;93.41
84653;BME280;74883;48.882;2.092;2024-01-06T08:21:49;100896.06;;;4.74;93.06
84653;BME280;74883;48.882;2.092;2024-01-06T08:24:14;100907.22;;;4.74;92.89
84653;BME280;74883;48.882;2.092;2024-01-06T08:26:40;100899.81;;;4.64;92.19
84653;BME280;74883;48.882;2.092;2024-01-06T08:29:05;100915.28;;;4.64;92.78
84653;BME280;74883;48.882;2.092;2024-01-06T08:31:30;100918.84;;;4.60;92.35
84653;BME280;74883;48.882;2.092;2024-01-06T08:33:56;100920.44;;;4.62;92.36
84653;BME280;74883;48.882;2.092;2024-01-06T08:36:21;100920.22;;;4.70;92.35
84653;BME280;74883;48.882;2.092;2024-01-06T08:38:47;100926.31;;;4.67;91.87
84653;BME280;74883;48.882;2.092;2024-01-06T08:41:12;100928.66;;;4.75;92.85
84653;BME280;74883;48.882;2.092;2024-01-06T08:43:37;100922.66;;;4.74;92.56
84653;BME280;74883;48.882;2.092;2024-01-06T08:46:03;100931.19;;;4.76;93.07
84653;BME280;74883;48.882;2.092;2024-01-06T08:48:28;100933.94;;;4.70;91.59
84653;BME280;74883;48.882;2.092;2024-01-06T08:50:54;100938.78;;;4.81;92.97
84653;BME280;74883;48.882;2.092;2024-01-06T08:53:19;100938.78;;;4.81;93.36
84653;BME280;74883;48.882;2.092;2024-01-06T08:55:44;100940.59;;;4.77;92.72
84653;BME280;74883;48.882;2.092;2024-01-06T08:58:10;100940.53;;;4.80;92.51
84653;BME280;74883;48.882;2.092;2024-01-06T09:00:35;100937.84;;;4.83;93.17
84653;BME280;74883;48.882;2.092;2024-01-06T09:03:00;100950.81;;;4.80;92.68
84653;BME280;74883;48.882;2.092;2024-01-06T09:05:26;100952.34;;;4.87;92.81
84653;BME280;74883;48.882;2.092;2024-01-06T09:07:51;100964.97;;;4.95;92.97
84653;BME280;74883;48.882;2.092;2024-01-06T09:10:22;100961.00;;;4.85;90.16
84653;BME280;74883;48.882;2.092;2024-01-06T09:12:48;100968.59;;;4.89;91.20
84653;BME280;74883;48.882;2.092;2024-01-06T09:15:13;100970.16;;;4.93;91.08
84653;BME280;74883;48.882;2.092;2024-01-06T09:17:38;100977.75;;;4.98;90.24
84653;BME280;74883;48.882;2.092;2024-01-06T09:20:04;100975.13;;;5.00;89.99
84653;BME280;74883;48.882;2.092;2024-01-06T09:22:31;100981.78;;;5.07;91.03
84653;BME280;74883;48.882;2.092;2024-01-06T09:24:57;100976.53;;;5.10;88.86
84653;BME280;74883;48.882;2.092;2024-01-06T09:27:22;100981.53;;;5.16;90.40
84653;BME280;74883;48.882;2.092;2024-01-06T09:29:48;100980.44;;;5.23;90.17
84653;BME280;74883;48.882;2.092;2024-01-06T09:32:13;100981.13;;;5.28;88.98
84653;BME280;74883;48.882;2.092;2024-01-06T09:34:39;100990.50;;;5.30;88.83
84653;BME280;74883;48.882;2.092;2024-01-06T09:37:04;100988.72;;;5.32;90.01
84653;BME280;74883;48.882;2.092;2024-01-06T09:39:30;100992.84;;;5.38;90.17
84653;BME280;74883;48.882;2.092;2024-01-06T09:41:57;100996.22;;;5.40;89.68
84653;BME280;74883;48.882;2.092;2024-01-06T09:44:22;100989.19;;;5.45;89.62
84653;BME280;74883;48.882;2.092;2024-01-06T09:46:49;100996.84;;;5.48;91.17
84653;BME280;74883;48.882;2.092;2024-01-06T09:49:21;100999.22;;;5.54;91.15
84653;BME280;74883;48.882;2.092;2024-01-06T09:51:49;101012.03;;;5.57;91.32
84653;BME280;74883;48.882;2.092;2024-01-06T09:54:22;101008.50;;;5.59;91.52
84653;BME280;74883;48.882;2.092;2024-01-06T09:56:51;101004.72;;;5.70;91.18
84653;BME280;74883;48.882;2.092;2024-01-06T09:59:16;101004.00;;;5.66;90.97
84653;BME280;74883;48.882;2.092;2024-01-06T10:01:44;101016.19;;;5.61;89.70
84653;BME280;74883;48.882;2.092;2024-01-06T10:04:10;101016.09;;;5.64;90.97
84653;BME280;74883;48.882;2.092;2024-01-06T10:06:35;101013.38;;;5.69;91.50
84653;BME280;74883;48.882;2.092;2024-01-06T10:09:01;101016.91;;;5.64;88.64
84653;BME280;74883;48.882;2.092;2024-01-06T10:11:27;101013.31;;;5.70;90.38
84653;BME280;74883;48.882;2.092;2024-01-06T10:13:52;101010.59;;;5.75;90.18
84653;BME280;74883;48.882;2.092;2024-01-06T10:16:19;101016.75;;;5.71;90.68
84653;BME280;74883;48.882;2.092;2024-01-06T10:18:45;101014.88;;;5.76;91.72
84653;BME280;74883;48.882;2.092;2024-01-06T10:21:10;101016.50;;;5.78;91.15
84653;BME280;74883;48.882;2.092;2024-01-06T10:23:36;101013.81;;;5.81;90.98
84653;BME280;74883;48.882;2.092;2024-01-06T10:26:02;101015.50;;;5.82;90.28
84653;BME280;74883;48.882;2.092;2024-01-06T10:28:28;101012.91;;;5.82;89.72
84653;BME280;74883;48.882;2.092;2024-01-06T10:30:55;101015.31;;;5.88;91.20
84653;BME280;74883;48.882;2.092;2024-01-06T10:33:21;101016.97;;;5.91;91.31
84653;BME280;74883;48.882;2.092;2024-01-06T10:35:47;101021.00;;;5.99;90.35
84653;BME280;74883;48.882;2.092;2024-01-06T10:38:13;101025.34;;;5.97;91.50
84653;BME280;74883;48.882;2.092;2024-01-06T10:40:39;101016.56;;;6.03;91.12
84653;BME280;74883;48.882;2.092;2024-01-06T10:43:05;101022.41;;;6.08;91.00
84653;BME280;74883;48.882;2.092;2024-01-06T10:45:31;101015.72;;;6.02;87.16
84653;BME280;74883;48.882;2.092;2024-01-06T10:47:57;101012.88;;;6.10;90.46
84653;BME280;74883;48.882;2.092;2024-01-06T10:50:23;101020.94;;;6.01;88.38
84653;BME280;74883;48.882;2.092;2024-01-06T10:52:48;101014.94;;;6.00;90.70
84653;BME280;74883;48.882;2.092;2024-01-06T10:55:18;101012.13;;;6.06;90.26
84653;BME280;74883;48.882;2.092;2024-01-06T10:57:46;101019.88;;;6.06;89.92
84653;BME280;74883;48.882;2.092;2024-01-06T11:00:12;101016.63;;;6.01;90.49
84653;BME280;74883;48.882;2.092;2024-01-06T11:02:39;101011.56;;;5.98;88.97
84653;BME280;74883;48.882;2.092;2024-01-06T11:05:04;101019.25;;;6.00;90.74
84653;BME280;74883;48.882;2.092;2024-01-06T11:07:33;101020.16;;;5.99;90.18
84653;BME280;74883;48.882;2.092;2024-01-06T11:12:37;101014.22;;;5.95;88.46
84653;BME280;74883;48.882;2.092;2024-01-06T11:15:02;101015.97;;;5.95;91.56
84653;BME280;74883;48.882;2.092;2024-01-06T11:17:53;101015.84;;;5.99;88.63
84653;BME280;74883;48.882;2.092;2024-01-06T11:20:25;101019.09;;;6.04;89.52
84653;BME280;74883;48.882;2.092;2024-01-06T11:22:51;101004.94;;;6.16;90.88
84653;BME280;74883;48.882;2.092;2024-01-06T11:25:19;101008.19;;;6.21;90.50
84653;BME280;74883;48.882;2.092;2024-01-06T11:27:46;101015.00;;;6.23;90.86
84653;BME280;74883;48.882;2.092;2024-01-06T11:30:22;101011.25;;;6.32;89.17
84653;BME280;74883;48.882;2.092;2024-01-06T11:32:48;101017.69;;;6.45;91.12
84653;BME280;74883;48.882;2.092;2024-01-06T11:35:17;101014.94;;;6.50;88.62
84653;BME280;74883;48.882;2.092;2024-01-06T11:42:46;101007.75;;;6.58;90.34
84653;BME280;74883;48.882;2.092;2024-01-06T11:45:13;100997.56;;;6.55;89.44
84653;BME280;74883;48.882;2.092;2024-01-06T11:47:39;101005.97;;;6.60;88.39
84653;BME280;74883;48.882;2.092;2024-01-06T11:50:05;100998.78;;;6.68;88.86
84653;BME280;74883;48.882;2.092;2024-01-06T11:52:34;100990.25;;;6.66;88.11
84653;BME280;74883;48.882;2.092;2024-01-06T11:55:00;100991.81;;;6.70;88.19
84653;BME280;74883;48.882;2.092;2024-01-06T11:57:27;100996.78;;;6.76;89.23
84653;BME280;74883;48.882;2.092;2024-01-06T11:59:53;100994.25;;;6.74;89.90
84653;BME280;74883;48.882;2.092;2024-01-06T12:02:19;100991.38;;;6.82;91.15
84653;BME280;74883;48.882;2.092;2024-01-06T12:04:49;100986.94;;;6.85;90.18
84653;BME280;74883;48.882;2.092;2024-01-06T12:07:16;100990.19;;;6.90;89.01
84653;BME280;74883;48.882;2.092;2024-01-06T12:09:42;100983.00;;;6.98;87.85
84653;BME280;74883;48.882;2.092;2024-01-06T12:12:07;100986.47;;;6.97;89.70
84653;BME280;74883;48.882;2.092;2024-01-06T12:14:34;100982.84;;;7.03;88.68
84653;BME280;74883;48.882;2.092;2024-01-06T12:17:00;100978.19;;;7.11;88.31
84653;BME280;74883;48.882;2.092;2024-01-06T12:19:32;100976.19;;;7.19;87.18
84653;BME280;74883;48.882;2.092;2024-01-06T12:21:58;100977.91;;;7.19;88.02
84653;BME280;74883;48.882;2.092;2024-01-06T12:24:25;100976.75;;;7.04;88.90
84653;BME280;74883;48.882;2.092;2024-01-06T12:26:52;100983.13;;;6.95;86.67
84653;BME280;74883;48.882;2.092;2024-01-06T12:29:17;100976.44;;;6.90;87.33
84653;BME280;74883;48.882;2.092;2024-01-06T12:31:43;100984.06;;;6.93;88.21
84653;BME280;74883;48.882;2.092;2024-01-06T12:34:09;100982.25;;;6.95;86.86
84653;BME280;74883;48.882;2.092;2024-01-06T12:36:39;100980.59;;;6.94;86.14
84653;BME280;74883;48.882;2.092;2024-01-06T12:39:10;100979.25;;;6.84;86.87
84653;BME280;74883;48.882;2.092;2024-01-06T12:41:37;100979.25;;;6.84;89.03
84653;BME280;74883;48.882;2.092;2024-01-06T12:44:03;100974.34;;;6.76;83.73
84653;BME280;74883;48.882;2.092;2024-01-06T12:46:28;100983.69;;;6.80;89.00
84653;BME280;74883;48.882;2.092;2024-01-06T12:48:54;100981.28;;;6.76;87.31
84653;BME280;74883;48.882;2.092;2024-01-06T12:51:19;100987.00;;;6.84;89.63
84653;BME280;74883;48.882;2.092;2024-01-06T12:53:44;100978.41;;;6.83;87.15
84653;BME280;74883;48.882;2.092;2024-01-06T12:56:10;100980.88;;;6.86;88.93
84653;BME280;74883;48.882;2.092;2024-01-06T12:58:35;100985.19;;;6.86;87.72
84653;BME280;74883;48.882;2.092;2024-01-06T13:01:00;100981.06;;;6.82;88.31